sensor_id;sensor_type;location;lat;lon;timestamp;P1;durP1;ratioP1;P2;durP2;ratioP2
26407;SDS011;14583;43.604;1.364;2023-07-22T00:02:05;8.27;;;3.97;;
26407;SDS011;14583;43.604;1.364;2023-07-22T00:04:31;6.22;;;3.83;;
26407;SDS011;14583;43.604;1.364;2023-07-22T00:06:56;8.43;;;3.60;;
26407;SDS011;14583;43.604;1.364;2023-07-22T00:09:22;8.32;;;3.55;;
26407;SDS011;14583;43.604;1.364;2023-07-22T00:11:49;6.70;;;4.20;;
26407;SDS011;14583;43.604;1.364;2023-07-22T00:14:15;4.47;;;3.50;;
26407;SDS011;14583;43.604;1.364;2023-07-22T00:16:40;3.90;;;3.42;;
26407;SDS011;14583;43.604;1.364;2023-07-22T00:19:06;5.25;;;3.50;;
26407;SDS011;14583;43.604;1.364;2023-07-22T00:21:32;8.25;;;3.63;;
26407;SDS011;14583;43.604;1.364;2023-07-22T00:23:59;4.97;;;3.60;;
26407;SDS011;14583;43.604;1.364;2023-07-22T00:26:25;7.20;;;3.78;;
26407;SDS011;14583;43.604;1.364;2023-07-22T00:28:51;6.40;;;3.50;;
26407;SDS011;14583;43.604;1.364;2023-07-22T00:31:16;6.05;;;3.70;;
26407;SDS011;14583;43.604;1.364;2023-07-22T00:33:42;5.07;;;3.47;;
26407;SDS011;14583;43.604;1.364;2023-07-22T00:36:08;7.45;;;3.83;;
26407;SDS011;14583;43.604;1.364;2023-07-22T00:38:33;9.75;;;4.00;;
26407;SDS011;14583;43.604;1.364;2023-07-22T00:40:59;7.20;;;3.58;;
26407;SDS011;14583;43.604;1.364;2023-07-22T00:43:25;6.13;;;3.50;;
26407;SDS011;14583;43.604;1.364;2023-07-22T00:45:51;7.13;;;3.42;;
26407;SDS011;14583;43.604;1.364;2023-07-22T00:48:17;4.90;;;3.38;;
26407;SDS011;14583;43.604;1.364;2023-07-22T00:50:44;5.28;;;3.63;;
26407;SDS011;14583;43.604;1.364;2023-07-22T00:53:10;5.55;;;3.28;;
26407;SDS011;14583;43.604;1.364;2023-07-22T00:55:35;6.20;;;3.90;;
26407;SDS011;14583;43.604;1.364;2023-07-22T00:58:04;6.32;;;3.60;;
26407;SDS011;14583;43.604;1.364;2023-07-22T01:00:30;5.97;;;4.00;;
26407;SDS011;14583;43.604;1.364;2023-07-22T01:02:57;5.50;;;4.35;;
26407;SDS011;14583;43.604;1.364;2023-07-22T01:05:23;8.75;;;3.83;;
26407;SDS011;14583;43.604;1.364;2023-07-22T01:07:51;6.10;;;4.00;;
26407;SDS011;14583;43.604;1.364;2023-07-22T01:10:16;8.57;;;4.15;;
26407;SDS011;14583;43.604;1.364;2023-07-22T01:12:43;5.80;;;3.88;;
26407;SDS011;14583;43.604;1.364;2023-07-22T01:15:09;5.70;;;3.58;;
26407;SDS011;14583;43.604;1.364;2023-07-22T01:17:38;7.25;;;3.40;;
26407;SDS011;14583;43.604;1.364;2023-07-22T01:20:05;5.68;;;3.60;;
26407;SDS011;14583;43.604;1.364;2023-07-22T01:22:31;4.68;;;3.28;;
26407;SDS011;14583;43.604;1.364;2023-07-22T01:24:58;5.75;;;3.70;;
26407;SDS011;14583;43.604;1.364;2023-07-22T01:27:24;7.10;;;3.83;;
26407;SDS011;14583;43.604;1.364;2023-07-22T01:29:50;5.22;;;3.50;;
26407;SDS011;14583;43.604;1.364;2023-07-22T01:32:17;5.50;;;3.50;;
26407;SDS011;14583;43.604;1.364;2023-07-22T01:34:42;7.78;;;3.88;;
26407;SDS011;14583;43.604;1.364;2023-07-22T01:37:08;4.72;;;3.45;;
26407;SDS011;14583;43.604;1.364;2023-07-22T01:39:34;6.57;;;4.90;;
26407;SDS011;14583;43.604;1.364;2023-07-22T01:42:01;5.60;;;3.65;;
26407;SDS011;14583;43.604;1.364;2023-07-22T01:44:27;5.88;;;3.38;;
26407;SDS011;14583;43.604;1.364;2023-07-22T01:46:53;4.72;;;3.72;;
26407;SDS011;14583;43.604;1.364;2023-07-22T01:49:19;4.55;;;3.60;;
26407;SDS011;14583;43.604;1.364;2023-07-22T01:51:45;5.25;;;3.63;;
26407;SDS011;14583;43.604;1.364;2023-07-22T01:54:10;5.70;;;3.72;;
26407;SDS011;14583;43.604;1.364;2023-07-22T01:56:37;5.15;;;3.30;;
26407;SDS011;14583;43.604;1.364;2023-07-22T01:59:03;4.15;;;3.47;;
26407;SDS011;14583;43.604;1.364;2023-07-22T02:01:30;6.22;;;3.60;;
26407;SDS011;14583;43.604;1.364;2023-07-22T02:03:55;5.75;;;3.40;;
26407;SDS011;14583;43.604;1.364;2023-07-22T02:06:21;5.88;;;3.63;;
26407;SDS011;14583;43.604;1.364;2023-07-22T02:08:47;8.05;;;3.65;;
26407;SDS011;14583;43.604;1.364;2023-07-22T02:11:13;4.75;;;3.35;;
26407;SDS011;14583;43.604;1.364;2023-07-22T02:13:39;5.55;;;3.42;;
26407;SDS011;14583;43.604;1.364;2023-07-22T02:16:04;7.15;;;3.50;;
26407;SDS011;14583;43.604;1.364;2023-07-22T02:18:30;5.72;;;3.83;;
26407;SDS011;14583;43.604;1.364;2023-07-22T02:20:56;8.30;;;3.65;;
26407;SDS011;14583;43.604;1.364;2023-07-22T02:23:22;6.15;;;3.63;;
26407;SDS011;14583;43.604;1.364;2023-07-22T02:25:52;5.70;;;3.47;;
26407;SDS011;14583;43.604;1.364;2023-07-22T02:28:18;5.82;;;3.13;;
26407;SDS011;14583;43.604;1.364;2023-07-22T02:30:49;4.53;;;3.30;;
26407;SDS011;14583;43.604;1.364;2023-07-22T02:33:17;5.60;;;3.42;;
26407;SDS011;14583;43.604;1.364;2023-07-22T02:35:43;6.53;;;3.63;;
26407;SDS011;14583;43.604;1.364;2023-07-22T02:38:09;8.25;;;4.32;;
26407;SDS011;14583;43.604;1.364;2023-07-22T02:40:35;6.00;;;4.38;;
26407;SDS011;14583;43.604;1.364;2023-07-22T02:43:02;6.60;;;4.75;;
26407;SDS011;14583;43.604;1.364;2023-07-22T02:45:28;5.60;;;3.40;;
26407;SDS011;14583;43.604;1.364;2023-07-22T02:47:54;4.03;;;3.30;;
26407;SDS011;14583;43.604;1.364;2023-07-22T02:50:20;5.82;;;3.70;;
26407;SDS011;14583;43.604;1.364;2023-07-22T02:52:45;5.03;;;3.42;;
26407;SDS011;14583;43.604;1.364;2023-07-22T02:55:14;13.82;;;4.10;;
26407;SDS011;14583;43.604;1.364;2023-07-22T02:57:45;4.43;;;3.00;;
26407;SDS011;14583;43.604;1.364;2023-07-22T03:00:12;5.15;;;3.00;;
26407;SDS011;14583;43.604;1.364;2023-07-22T03:02:42;5.38;;;3.13;;
26407;SDS011;14583;43.604;1.364;2023-07-22T03:05:08;8.32;;;3.00;;
26407;SDS011;14583;43.604;1.364;2023-07-22T03:07:37;5.68;;;3.42;;
26407;SDS011;14583;43.604;1.364;2023-07-22T03:10:03;5.80;;;3.38;;
26407;SDS011;14583;43.604;1.364;2023-07-22T03:12:30;4.68;;;3.10;;
26407;SDS011;14583;43.604;1.364;2023-07-22T03:14:56;6.03;;;3.35;;
26407;SDS011;14583;43.604;1.364;2023-07-22T03:17:22;4.10;;;2.80;;
26407;SDS011;14583;43.604;1.364;2023-07-22T03:19:48;4.07;;;2.72;;
26407;SDS011;14583;43.604;1.364;2023-07-22T03:22:14;3.08;;;2.42;;
26407;SDS011;14583;43.604;1.364;2023-07-22T03:24:49;4.72;;;2.55;;
26407;SDS011;14583;43.604;1.364;2023-07-22T03:27:15;4.53;;;3.00;;
26407;SDS011;14583;43.604;1.364;2023-07-22T03:29:42;5.28;;;3.50;;
26407;SDS011;14583;43.604;1.364;2023-07-22T03:32:08;4.80;;;3.22;;
26407;SDS011;14583;43.604;1.364;2023-07-22T03:34:34;3.78;;;3.10;;
26407;SDS011;14583;43.604;1.364;2023-07-22T03:37:00;7.88;;;2.70;;
26407;SDS011;14583;43.604;1.364;2023-07-22T03:39:26;4.20;;;2.78;;
26407;SDS011;14583;43.604;1.364;2023-07-22T03:41:51;3.33;;;2.63;;
26407;SDS011;14583;43.604;1.364;2023-07-22T03:44:17;5.93;;;4.10;;
26407;SDS011;14583;43.604;1.364;2023-07-22T03:46:43;6.85;;;3.22;;
26407;SDS011;14583;43.604;1.364;2023-07-22T03:49:08;5.35;;;3.10;;
26407;SDS011;14583;43.604;1.364;2023-07-22T03:51:34;3.67;;;2.65;;
26407;SDS011;14583;43.604;1.364;2023-07-22T03:54:00;3.13;;;2.78;;
26407;SDS011;14583;43.604;1.364;2023-07-22T03:56:26;10.90;;;3.30;;
26407;SDS011;14583;43.604;1.364;2023-07-22T03:58:52;5.60;;;3.28;;
26407;SDS011;14583;43.604;1.364;2023-07-22T04:01:18;5.60;;;3.67;;
26407;SDS011;14583;43.604;1.364;2023-07-22T04:03:44;6.68;;;3.17;;
26407;SDS011;14583;43.604;1.364;2023-07-22T04:06:10;6.43;;;3.50;;
26407;SDS011;14583;43.604;1.364;2023-07-22T04:08:35;7.03;;;3.03;;
26407;SDS011;14583;43.604;1.364;2023-07-22T04:11:01;4.82;;;3.42;;
26407;SDS011;14583;43.604;1.364;2023-07-22T04:13:27;6.97;;;3.28;;
26407;SDS011;14583;43.604;1.364;2023-07-22T04:15:53;4.45;;;3.35;;
26407;SDS011;14583;43.604;1.364;2023-07-22T04:18:19;5.57;;;3.50;;
26407;SDS011;14583;43.604;1.364;2023-07-22T04:20:46;6.53;;;3.28;;
26407;SDS011;14583;43.604;1.364;2023-07-22T04:23:13;4.35;;;3.10;;
26407;SDS011;14583;43.604;1.364;2023-07-22T04:25:42;5.00;;;3.13;;
26407;SDS011;14583;43.604;1.364;2023-07-22T04:28:09;5.18;;;3.05;;
26407;SDS011;14583;43.604;1.364;2023-07-22T04:30:35;3.88;;;3.47;;
26407;SDS011;14583;43.604;1.364;2023-07-22T04:33:01;4.90;;;3.47;;
26407;SDS011;14583;43.604;1.364;2023-07-22T04:35:30;5.95;;;3.00;;
26407;SDS011;14583;43.604;1.364;2023-07-22T04:38:03;4.18;;;3.05;;
26407;SDS011;14583;43.604;1.364;2023-07-22T04:40:29;6.20;;;2.90;;
26407;SDS011;14583;43.604;1.364;2023-07-22T04:42:55;3.97;;;3.40;;
26407;SDS011;14583;43.604;1.364;2023-07-22T04:45:22;6.05;;;3.40;;
26407;SDS011;14583;43.604;1.364;2023-07-22T04:47:52;8.68;;;3.53;;
26407;SDS011;14583;43.604;1.364;2023-07-22T04:50:18;8.00;;;3.97;;
26407;SDS011;14583;43.604;1.364;2023-07-22T04:52:47;7.63;;;4.10;;
26407;SDS011;14583;43.604;1.364;2023-07-22T04:55:13;4.75;;;3.10;;
26407;SDS011;14583;43.604;1.364;2023-07-22T04:57:40;4.32;;;2.97;;
26407;SDS011;14583;43.604;1.364;2023-07-22T05:00:07;5.90;;;2.70;;
26407;SDS011;14583;43.604;1.364;2023-07-22T05:02:39;6.10;;;2.80;;
26407;SDS011;14583;43.604;1.364;2023-07-22T05:05:05;4.70;;;3.00;;
26407;SDS011;14583;43.604;1.364;2023-07-22T05:07:31;3.90;;;2.83;;
26407;SDS011;14583;43.604;1.364;2023-07-22T05:09:57;3.20;;;2.65;;
26407;SDS011;14583;43.604;1.364;2023-07-22T05:12:23;6.28;;;2.50;;
26407;SDS011;14583;43.604;1.364;2023-07-22T05:14:48;6.72;;;3.03;;
26407;SDS011;14583;43.604;1.364;2023-07-22T05:17:14;4.07;;;2.83;;
26407;SDS011;14583;43.604;1.364;2023-07-22T05:19:40;4.97;;;2.90;;
26407;SDS011;14583;43.604;1.364;2023-07-22T05:22:06;8.93;;;2.88;;
26407;SDS011;14583;43.604;1.364;2023-07-22T05:24:32;5.75;;;2.50;;
26407;SDS011;14583;43.604;1.364;2023-07-22T05:26:58;5.18;;;3.13;;
26407;SDS011;14583;43.604;1.364;2023-07-22T05:29:24;6.03;;;3.00;;
26407;SDS011;14583;43.604;1.364;2023-07-22T05:31:49;3.22;;;2.53;;
26407;SDS011;14583;43.604;1.364;2023-07-22T05:34:15;3.55;;;2.40;;
26407;SDS011;14583;43.604;1.364;2023-07-22T05:36:41;4.45;;;2.47;;
26407;SDS011;14583;43.604;1.364;2023-07-22T05:39:06;4.28;;;2.22;;
26407;SDS011;14583;43.604;1.364;2023-07-22T05:41:32;4.53;;;2.60;;
26407;SDS011;14583;43.604;1.364;2023-07-22T05:43:59;5.30;;;2.53;;
26407;SDS011;14583;43.604;1.364;2023-07-22T05:46:24;5.07;;;2.78;;
26407;SDS011;14583;43.604;1.364;2023-07-22T05:48:50;3.53;;;2.80;;
26407;SDS011;14583;43.604;1.364;2023-07-22T05:51:16;6.85;;;2.53;;
26407;SDS011;14583;43.604;1.364;2023-07-22T05:53:43;8.32;;;2.78;;
26407;SDS011;14583;43.604;1.364;2023-07-22T05:56:08;4.80;;;2.70;;
26407;SDS011;14583;43.604;1.364;2023-07-22T05:58:34;4.10;;;2.40;;
26407;SDS011;14583;43.604;1.364;2023-07-22T06:01:00;3.25;;;2.58;;
26407;SDS011;14583;43.604;1.364;2023-07-22T06:03:26;4.63;;;2.88;;
26407;SDS011;14583;43.604;1.364;2023-07-22T06:05:51;4.88;;;3.17;;
26407;SDS011;14583;43.604;1.364;2023-07-22T06:08:17;4.63;;;2.97;;
26407;SDS011;14583;43.604;1.364;2023-07-22T06:10:42;5.43;;;2.90;;
26407;SDS011;14583;43.604;1.364;2023-07-22T06:13:08;7.65;;;2.80;;
26407;SDS011;14583;43.604;1.364;2023-07-22T06:15:34;3.75;;;2.78;;
26407;SDS011;14583;43.604;1.364;2023-07-22T06:18:00;5.18;;;2.80;;
26407;SDS011;14583;43.604;1.364;2023-07-22T06:20:26;5.30;;;2.88;;
26407;SDS011;14583;43.604;1.364;2023-07-22T06:22:53;5.20;;;2.92;;
26407;SDS011;14583;43.604;1.364;2023-07-22T06:25:19;4.85;;;2.35;;
26407;SDS011;14583;43.604;1.364;2023-07-22T06:27:45;4.80;;;3.00;;
26407;SDS011;14583;43.604;1.364;2023-07-22T06:30:11;4.10;;;2.60;;
26407;SDS011;14583;43.604;1.364;2023-07-22T06:32:37;2.85;;;2.55;;
26407;SDS011;14583;43.604;1.364;2023-07-22T06:35:03;4.68;;;2.35;;
26407;SDS011;14583;43.604;1.364;2023-07-22T06:37:30;4.57;;;2.88;;
26407;SDS011;14583;43.604;1.364;2023-07-22T06:39:55;3.25;;;2.88;;
26407;SDS011;14583;43.604;1.364;2023-07-22T06:42:21;3.50;;;2.72;;
26407;SDS011;14583;43.604;1.364;2023-07-22T06:44:47;7.55;;;2.97;;
26407;SDS011;14583;43.604;1.364;2023-07-22T06:47:12;3.75;;;2.72;;
26407;SDS011;14583;43.604;1.364;2023-07-22T06:49:39;5.95;;;2.72;;
26407;SDS011;14583;43.604;1.364;2023-07-22T06:52:06;5.57;;;2.80;;
26407;SDS011;14583;43.604;1.364;2023-07-22T06:54:32;4.80;;;2.90;;
26407;SDS011;14583;43.604;1.364;2023-07-22T06:56:59;5.47;;;2.97;;
26407;SDS011;14583;43.604;1.364;2023-07-22T06:59:24;5.22;;;3.00;;
26407;SDS011;14583;43.604;1.364;2023-07-22T07:01:51;4.28;;;2.67;;
26407;SDS011;14583;43.604;1.364;2023-07-22T07:04:17;5.95;;;3.00;;
26407;SDS011;14583;43.604;1.364;2023-07-22T07:06:42;6.00;;;3.30;;
26407;SDS011;14583;43.604;1.364;2023-07-22T07:09:08;3.72;;;2.80;;
26407;SDS011;14583;43.604;1.364;2023-07-22T07:11:34;5.07;;;3.40;;
26407;SDS011;14583;43.604;1.364;2023-07-22T07:14:00;7.85;;;3.20;;
26407;SDS011;14583;43.604;1.364;2023-07-22T07:16:26;3.38;;;2.50;;
26407;SDS011;14583;43.604;1.364;2023-07-22T07:18:53;8.38;;;2.80;;
26407;SDS011;14583;43.604;1.364;2023-07-22T07:21:20;4.95;;;2.80;;
26407;SDS011;14583;43.604;1.364;2023-07-22T07:23:47;6.03;;;3.20;;
26407;SDS011;14583;43.604;1.364;2023-07-22T07:26:13;7.57;;;2.92;;
26407;SDS011;14583;43.604;1.364;2023-07-22T07:28:39;62.92;;;4.70;;
26407;SDS011;14583;43.604;1.364;2023-07-22T07:31:05;4.75;;;3.65;;
26407;SDS011;14583;43.604;1.364;2023-07-22T07:33:31;5.78;;;3.17;;
26407;SDS011;14583;43.604;1.364;2023-07-22T07:35:57;4.30;;;2.92;;
26407;SDS011;14583;43.604;1.364;2023-07-22T07:38:23;8.82;;;3.47;;
26407;SDS011;14583;43.604;1.364;2023-07-22T07:41:04;5.18;;;2.70;;
26407;SDS011;14583;43.604;1.364;2023-07-22T07:43:33;6.30;;;2.97;;
26407;SDS011;14583;43.604;1.364;2023-07-22T07:48:42;5.35;;;3.00;;
26407;SDS011;14583;43.604;1.364;2023-07-22T07:51:12;5.25;;;2.90;;
26407;SDS011;14583;43.604;1.364;2023-07-22T07:53:38;5.88;;;3.08;;
26407;SDS011;14583;43.604;1.364;2023-07-22T07:56:04;4.60;;;2.58;;
26407;SDS011;14583;43.604;1.364;2023-07-22T07:58:30;7.18;;;3.13;;
26407;SDS011;14583;43.604;1.364;2023-07-22T08:00:56;7.70;;;3.20;;
26407;SDS011;14583;43.604;1.364;2023-07-22T08:03:21;3.65;;;3.25;;
26407;SDS011;14583;43.604;1.364;2023-07-22T08:05:47;8.75;;;3.65;;
26407;SDS011;14583;43.604;1.364;2023-07-22T08:08:12;4.55;;;3.22;;
26407;SDS011;14583;43.604;1.364;2023-07-22T08:10:38;4.15;;;2.85;;
26407;SDS011;14583;43.604;1.364;2023-07-22T08:13:04;6.15;;;3.10;;
26407;SDS011;14583;43.604;1.364;2023-07-22T08:15:29;5.50;;;2.85;;
26407;SDS011;14583;43.604;1.364;2023-07-22T08:17:55;5.63;;;2.80;;
26407;SDS011;14583;43.604;1.364;2023-07-22T08:20:21;5.55;;;3.10;;
26407;SDS011;14583;43.604;1.364;2023-07-22T08:22:47;4.00;;;3.30;;
26407;SDS011;14583;43.604;1.364;2023-07-22T08:25:12;4.78;;;2.90;;
26407;SDS011;14583;43.604;1.364;2023-07-22T08:27:38;6.50;;;2.92;;
26407;SDS011;14583;43.604;1.364;2023-07-22T08:30:04;3.55;;;2.78;;
26407;SDS011;14583;43.604;1.364;2023-07-22T08:32:30;5.18;;;2.45;;
26407;SDS011;14583;43.604;1.364;2023-07-22T08:34:56;3.83;;;2.60;;
26407;SDS011;14583;43.604;1.364;2023-07-22T08:37:21;5.20;;;3.03;;
26407;SDS011;14583;43.604;1.364;2023-07-22T08:39:47;4.53;;;2.60;;
26407;SDS011;14583;43.604;1.364;2023-07-22T08:42:13;4.43;;;2.92;;
26407;SDS011;14583;43.604;1.364;2023-07-22T08:44:43;4.10;;;3.40;;
26407;SDS011;14583;43.604;1.364;2023-07-22T08:47:10;4.45;;;2.92;;
26407;SDS011;14583;43.604;1.364;2023-07-22T08:49:40;7.63;;;3.00;;
26407;SDS011;14583;43.604;1.364;2023-07-22T08:52:10;4.00;;;2.95;;
26407;SDS011;14583;43.604;1.364;2023-07-22T08:54:39;5.55;;;2.90;;
26407;SDS011;14583;43.604;1.364;2023-07-22T08:57:05;5.88;;;3.10;;
26407;SDS011;14583;43.604;1.364;2023-07-22T08:59:33;4.00;;;2.70;;
26407;SDS011;14583;43.604;1.364;2023-07-22T09:01:58;4.88;;;3.00;;
26407;SDS011;14583;43.604;1.364;2023-07-22T09:04:25;4.45;;;3.28;;
26407;SDS011;14583;43.604;1.364;2023-07-22T09:06:50;4.00;;;2.90;;
26407;SDS011;14583;43.604;1.364;2023-07-22T09:09:16;6.03;;;3.00;;
26407;SDS011;14583;43.604;1.364;2023-07-22T09:11:42;5.55;;;2.95;;
26407;SDS011;14583;43.604;1.364;2023-07-22T09:14:11;6.78;;;3.42;;
26407;SDS011;14583;43.604;1.364;2023-07-22T09:16:38;5.55;;;3.00;;
26407;SDS011;14583;43.604;1.364;2023-07-22T09:19:04;4.88;;;2.75;;
26407;SDS011;14583;43.604;1.364;2023-07-22T09:21:30;4.95;;;2.80;;
26407;SDS011;14583;43.604;1.364;2023-07-22T09:23:56;4.13;;;2.70;;
26407;SDS011;14583;43.604;1.364;2023-07-22T09:26:21;6.93;;;3.65;;
26407;SDS011;14583;43.604;1.364;2023-07-22T09:28:54;6.93;;;2.67;;
26407;SDS011;14583;43.604;1.364;2023-07-22T09:31:21;4.20;;;2.50;;
26407;SDS011;14583;43.604;1.364;2023-07-22T09:33:47;5.32;;;2.30;;
26407;SDS011;14583;43.604;1.364;2023-07-22T09:36:13;6.68;;;2.55;;
26407;SDS011;14583;43.604;1.364;2023-07-22T09:38:39;3.25;;;2.60;;
26407;SDS011;14583;43.604;1.364;2023-07-22T09:41:05;6.93;;;3.10;;
26407;SDS011;14583;43.604;1.364;2023-07-22T09:43:31;4.40;;;2.70;;
26407;SDS011;14583;43.604;1.364;2023-07-22T09:46:05;3.97;;;3.05;;
26407;SDS011;14583;43.604;1.364;2023-07-22T09:48:41;5.22;;;2.85;;
26407;SDS011;14583;43.604;1.364;2023-07-22T09:51:14;10.55;;;2.72;;
26407;SDS011;14583;43.604;1.364;2023-07-22T09:53:47;4.18;;;2.47;;
26407;SDS011;14583;43.604;1.364;2023-07-22T09:56:25;4.75;;;2.55;;
26407;SDS011;14583;43.604;1.364;2023-07-22T09:58:51;4.60;;;2.90;;
26407;SDS011;14583;43.604;1.364;2023-07-22T10:01:20;3.55;;;2.72;;
26407;SDS011;14583;43.604;1.364;2023-07-22T10:03:50;6.32;;;3.10;;
26407;SDS011;14583;43.604;1.364;2023-07-22T10:06:20;4.15;;;2.33;;
26407;SDS011;14583;43.604;1.364;2023-07-22T10:08:51;4.13;;;2.22;;
26407;SDS011;14583;43.604;1.364;2023-07-22T10:11:17;3.65;;;2.20;;
26407;SDS011;14583;43.604;1.364;2023-07-22T10:13:43;3.17;;;2.33;;
26407;SDS011;14583;43.604;1.364;2023-07-22T10:16:10;3.22;;;2.20;;
26407;SDS011;14583;43.604;1.364;2023-07-22T10:18:37;4.55;;;2.33;;
26407;SDS011;14583;43.604;1.364;2023-07-22T10:21:06;9.70;;;2.22;;
26407;SDS011;14583;43.604;1.364;2023-07-22T10:23:32;3.85;;;2.40;;
26407;SDS011;14583;43.604;1.364;2023-07-22T10:25:58;7.47;;;2.80;;
26407;SDS011;14583;43.604;1.364;2023-07-22T10:28:25;2.85;;;2.13;;
26407;SDS011;14583;43.604;1.364;2023-07-22T10:30:51;3.95;;;2.55;;
26407;SDS011;14583;43.604;1.364;2023-07-22T10:33:17;4.18;;;2.50;;
26407;SDS011;14583;43.604;1.364;2023-07-22T10:35:43;5.03;;;2.40;;
26407;SDS011;14583;43.604;1.364;2023-07-22T10:38:30;4.32;;;2.60;;
26407;SDS011;14583;43.604;1.364;2023-07-22T10:40:57;4.78;;;2.75;;
26407;SDS011;14583;43.604;1.364;2023-07-22T10:46:11;4.75;;;2.80;;
26407;SDS011;14583;43.604;1.364;2023-07-22T10:48:41;6.15;;;2.50;;
26407;SDS011;14583;43.604;1.364;2023-07-22T10:53:47;4.95;;;3.22;;
26407;SDS011;14583;43.604;1.364;2023-07-22T10:56:18;6.78;;;3.28;;
26407;SDS011;14583;43.604;1.364;2023-07-22T11:14:29;5.93;;;2.63;;
26407;SDS011;14583;43.604;1.364;2023-07-22T11:16:56;5.68;;;2.83;;
26407;SDS011;14583;43.604;1.364;2023-07-22T11:19:23;4.75;;;2.92;;
26407;SDS011;14583;43.604;1.364;2023-07-22T11:21:50;2.83;;;2.60;;
26407;SDS011;14583;43.604;1.364;2023-07-22T11:24:17;3.80;;;2.60;;
26407;SDS011;14583;43.604;1.364;2023-07-22T11:26:44;4.20;;;3.00;;
26407;SDS011;14583;43.604;1.364;2023-07-22T11:29:11;7.10;;;3.50;;
26407;SDS011;14583;43.604;1.364;2023-07-22T11:31:38;6.57;;;2.92;;
26407;SDS011;14583;43.604;1.364;2023-07-22T11:34:18;5.30;;;3.15;;
26407;SDS011;14583;43.604;1.364;2023-07-22T11:36:46;6.60;;;2.75;;
26407;SDS011;14583;43.604;1.364;2023-07-22T11:39:13;6.20;;;2.92;;
26407;SDS011;14583;43.604;1.364;2023-07-22T11:41:40;5.40;;;3.00;;
26407;SDS011;14583;43.604;1.364;2023-07-22T11:44:07;4.78;;;2.88;;
26407;SDS011;14583;43.604;1.364;2023-07-22T11:46:35;4.63;;;2.90;;
26407;SDS011;14583;43.604;1.364;2023-07-22T11:49:01;4.32;;;2.70;;
26407;SDS011;14583;43.604;1.364;2023-07-22T11:51:27;6.25;;;2.70;;
26407;SDS011;14583;43.604;1.364;2023-07-22T11:53:53;4.40;;;2.85;;
26407;SDS011;14583;43.604;1.364;2023-07-22T11:56:24;5.88;;;3.15;;
26407;SDS011;14583;43.604;1.364;2023-07-22T12:01:19;8.05;;;3.00;;
26407;SDS011;14583;43.604;1.364;2023-07-22T12:03:46;5.07;;;2.90;;
26407;SDS011;14583;43.604;1.364;2023-07-22T12:06:12;4.65;;;2.88;;
26407;SDS011;14583;43.604;1.364;2023-07-22T12:08:48;6.97;;;2.83;;
26407;SDS011;14583;43.604;1.364;2023-07-22T12:11:21;5.03;;;3.05;;
26407;SDS011;14583;43.604;1.364;2023-07-22T12:13:54;3.72;;;2.60;;
26407;SDS011;14583;43.604;1.364;2023-07-22T12:16:34;6.07;;;3.10;;
26407;SDS011;14583;43.604;1.364;2023-07-22T12:19:02;5.80;;;3.40;;
26407;SDS011;14583;43.604;1.364;2023-07-22T12:21:28;3.88;;;2.90;;
26407;SDS011;14583;43.604;1.364;2023-07-22T12:23:53;6.00;;;3.08;;
26407;SDS011;14583;43.604;1.364;2023-07-22T12:26:19;5.95;;;3.30;;
26407;SDS011;14583;43.604;1.364;2023-07-22T12:28:45;4.18;;;3.00;;
26407;SDS011;14583;43.604;1.364;2023-07-22T12:31:11;4.15;;;2.95;;
26407;SDS011;14583;43.604;1.364;2023-07-22T12:33:37;4.55;;;3.17;;
26407;SDS011;14583;43.604;1.364;2023-07-22T12:36:02;4.35;;;2.88;;
26407;SDS011;14583;43.604;1.364;2023-07-22T12:38:28;5.15;;;3.35;;
26407;SDS011;14583;43.604;1.364;2023-07-22T12:40:54;4.68;;;2.95;;
26407;SDS011;14583;43.604;1.364;2023-07-22T12:43:20;6.03;;;3.15;;
26407;SDS011;14583;43.604;1.364;2023-07-22T12:45:45;6.20;;;3.03;;
26407;SDS011;14583;43.604;1.364;2023-07-22T12:48:11;3.70;;;3.20;;
26407;SDS011;14583;43.604;1.364;2023-07-22T12:50:37;5.22;;;3.35;;
26407;SDS011;14583;43.604;1.364;2023-07-22T12:53:02;4.60;;;3.10;;
26407;SDS011;14583;43.604;1.364;2023-07-22T12:55:28;4.32;;;3.10;;
26407;SDS011;14583;43.604;1.364;2023-07-22T12:57:54;3.95;;;3.00;;
26407;SDS011;14583;43.604;1.364;2023-07-22T13:00:20;6.85;;;2.90;;
26407;SDS011;14583;43.604;1.364;2023-07-22T13:02:46;5.15;;;3.38;;
26407;SDS011;14583;43.604;1.364;2023-07-22T13:05:12;4.38;;;3.25;;
26407;SDS011;14583;43.604;1.364;2023-07-22T13:07:38;7.50;;;4.07;;
26407;SDS011;14583;43.604;1.364;2023-07-22T13:10:04;7.15;;;3.13;;
26407;SDS011;14583;43.604;1.364;2023-07-22T13:12:33;4.10;;;3.17;;
26407;SDS011;14583;43.604;1.364;2023-07-22T13:14:59;5.55;;;3.28;;
26407;SDS011;14583;43.604;1.364;2023-07-22T13:17:25;5.28;;;3.58;;
26407;SDS011;14583;43.604;1.364;2023-07-22T13:19:51;6.10;;;3.10;;
26407;SDS011;14583;43.604;1.364;2023-07-22T13:22:17;6.13;;;3.22;;
26407;SDS011;14583;43.604;1.364;2023-07-22T13:24:42;8.60;;;3.17;;
26407;SDS011;14583;43.604;1.364;2023-07-22T13:27:08;3.47;;;2.63;;
26407;SDS011;14583;43.604;1.364;2023-07-22T13:29:33;4.65;;;3.35;;
26407;SDS011;14583;43.604;1.364;2023-07-22T13:31:59;4.40;;;2.92;;
26407;SDS011;14583;43.604;1.364;2023-07-22T13:34:25;5.20;;;3.10;;
26407;SDS011;14583;43.604;1.364;2023-07-22T13:36:50;8.32;;;3.30;;
26407;SDS011;14583;43.604;1.364;2023-07-22T13:39:16;5.28;;;3.20;;
26407;SDS011;14583;43.604;1.364;2023-07-22T13:41:42;4.63;;;3.20;;
26407;SDS011;14583;43.604;1.364;2023-07-22T13:44:08;5.97;;;3.22;;
26407;SDS011;14583;43.604;1.364;2023-07-22T13:46:33;4.70;;;3.55;;
26407;SDS011;14583;43.604;1.364;2023-07-22T13:48:59;4.70;;;2.88;;
26407;SDS011;14583;43.604;1.364;2023-07-22T13:51:24;7.57;;;3.35;;
26407;SDS011;14583;43.604;1.364;2023-07-22T13:53:50;6.13;;;3.20;;
26407;SDS011;14583;43.604;1.364;2023-07-22T13:56:19;5.47;;;2.95;;
26407;SDS011;14583;43.604;1.364;2023-07-22T13:58:45;6.43;;;2.83;;
26407;SDS011;14583;43.604;1.364;2023-07-22T14:01:11;5.20;;;2.97;;
26407;SDS011;14583;43.604;1.364;2023-07-22T14:03:38;5.45;;;3.10;;
26407;SDS011;14583;43.604;1.364;2023-07-22T14:06:04;6.15;;;3.10;;
26407;SDS011;14583;43.604;1.364;2023-07-22T14:08:29;6.57;;;2.80;;
26407;SDS011;14583;43.604;1.364;2023-07-22T14:10:55;4.22;;;2.60;;
26407;SDS011;14583;43.604;1.364;2023-07-22T14:13:20;5.35;;;2.80;;
26407;SDS011;14583;43.604;1.364;2023-07-22T14:15:46;5.70;;;2.83;;
26407;SDS011;14583;43.604;1.364;2023-07-22T14:18:12;11.95;;;3.28;;
26407;SDS011;14583;43.604;1.364;2023-07-22T14:20:42;4.43;;;2.80;;
26407;SDS011;14583;43.604;1.364;2023-07-22T14:23:08;3.97;;;2.67;;
26407;SDS011;14583;43.604;1.364;2023-07-22T14:25:33;3.90;;;2.90;;
26407;SDS011;14583;43.604;1.364;2023-07-22T14:27:59;4.57;;;2.90;;
26407;SDS011;14583;43.604;1.364;2023-07-22T14:30:25;8.10;;;3.08;;
26407;SDS011;14583;43.604;1.364;2023-07-22T14:32:50;3.92;;;3.10;;
26407;SDS011;14583;43.604;1.364;2023-07-22T14:35:16;5.13;;;2.85;;
26407;SDS011;14583;43.604;1.364;2023-07-22T14:37:41;5.50;;;3.10;;
26407;SDS011;14583;43.604;1.364;2023-07-22T14:40:07;5.90;;;3.00;;
26407;SDS011;14583;43.604;1.364;2023-07-22T14:42:33;6.82;;;2.90;;
26407;SDS011;14583;43.604;1.364;2023-07-22T14:44:59;5.00;;;2.70;;
26407;SDS011;14583;43.604;1.364;2023-07-22T14:47:25;5.95;;;2.92;;
26407;SDS011;14583;43.604;1.364;2023-07-22T14:49:51;8.20;;;2.70;;
26407;SDS011;14583;43.604;1.364;2023-07-22T14:52:17;3.97;;;3.10;;
26407;SDS011;14583;43.604;1.364;2023-07-22T14:54:42;4.75;;;2.75;;
26407;SDS011;14583;43.604;1.364;2023-07-22T14:57:08;7.57;;;3.15;;
26407;SDS011;14583;43.604;1.364;2023-07-22T14:59:34;3.65;;;2.50;;
26407;SDS011;14583;43.604;1.364;2023-07-22T15:01:59;4.65;;;2.72;;
26407;SDS011;14583;43.604;1.364;2023-07-22T15:04:25;3.60;;;2.70;;
26407;SDS011;14583;43.604;1.364;2023-07-22T15:06:51;6.90;;;2.75;;
26407;SDS011;14583;43.604;1.364;2023-07-22T15:09:16;3.53;;;2.63;;
26407;SDS011;14583;43.604;1.364;2023-07-22T15:11:43;4.68;;;2.45;;